Time;durP1;ratioP1;P1;durP2;ratioP2;P2;SDS_P1;SDS_P2;PMS_P1;PMS_P2;Temp;Humidity;BMP_temperature;BMP_pressure;BME280_temperature;BME280_humidity;BME280_pressure;Samples;Min_cycle;Max_cycle;Signal;HPM_P1;HPM_P2
2022/09/19 00:00:46;;;;;;;12.57;2.15;;;12.40;99.90;;;;;;5112057;27;38843;-58
2022/09/19 00:03:15;;;;;;;10.82;1.98;;;12.50;99.90;;;;;;5110066;27;37224;-58
2022/09/19 00:05:42;;;;;;;7.80;1.75;;;12.50;99.90;;;;;;5110231;27;37519;-58
2022/09/19 00:08:10;;;;;;;10.60;2.03;;;12.50;99.90;;;;;;5112385;27;39456;-58
2022/09/19 00:10:39;;;;;;;11.70;2.33;;;12.50;99.90;;;;;;5111206;27;37726;-57
2022/09/19 00:13:08;;;;;;;12.45;1.83;;;12.50;99.90;;;;;;5112764;27;35198;-58
2022/09/19 00:15:36;;;;;;;11.25;2.13;;;12.60;99.90;;;;;;5111920;27;37707;-58
2022/09/19 00:18:04;;;;;;;18.23;2.78;;;12.50;99.90;;;;;;5111595;27;38162;-58
2022/09/19 00:20:40;;;;;;;14.95;2.22;;;12.50;99.90;;;;;;5112726;27;37658;-58
2022/09/19 00:25:59;;;;;;;8.40;1.60;;;12.50;99.90;;;;;;5112848;27;39647;-58
2022/09/19 00:28:27;;;;;;;19.40;2.70;;;12.60;99.90;;;;;;5111886;27;38274;-58
2022/09/19 00:30:55;;;;;;;13.65;2.38;;;12.50;99.90;;;;;;5111288;27;38173;-58
2022/09/19 00:33:27;;;;;;;10.77;1.67;;;12.50;99.90;;;;;;5111695;27;35429;-58
2022/09/19 00:35:56;;;;;;;10.85;2.15;;;12.50;99.90;;;;;;5110083;27;38589;-58
2022/09/19 00:38:23;;;;;;;10.80;1.65;;;12.50;99.90;;;;;;5111766;27;38094;-58
2022/09/19 00:40:51;;;;;;;14.27;2.40;;;12.60;99.90;;;;;;5111546;27;36689;-58
2022/09/19 00:43:20;;;;;;;12.07;2.13;;;12.60;99.90;;;;;;5112164;27;36852;-58
2022/09/19 00:45:48;;;;;;;18.23;2.65;;;12.60;99.90;;;;;;5111576;27;36435;-58
2022/09/19 00:48:18;;;;;;;17.23;3.03;;;12.60;99.90;;;;;;5111549;27;38260;-58
2022/09/19 00:50:48;;;;;;;20.30;3.53;;;12.60;99.90;;;;;;5112531;27;36644;-58
2022/09/19 00:53:21;;;;;;;14.20;2.13;;;12.60;99.90;;;;;;5111502;27;36623;-58
2022/09/19 00:55:54;;;;;;;18.98;3.10;;;12.60;99.90;;;;;;5108744;27;38834;-58
2022/09/19 00:58:26;;;;;;;18.17;2.50;;;12.60;99.90;;;;;;5111263;27;39885;-58
2022/09/19 01:00:54;;;;;;;12.38;1.88;;;12.60;99.90;;;;;;5113109;27;37615;-58
2022/09/19 01:03:24;;;;;;;12.20;2.05;;;12.60;99.90;;;;;;5110357;27;36521;-58
2022/09/19 01:06:06;;;;;;;18.25;3.15;;;12.60;99.90;;;;;;5112405;27;37723;-58
2022/09/19 01:08:59;;;;;;;17.27;2.35;;;12.50;99.90;;;;;;5111012;27;39111;-58
2022/09/19 01:11:46;;;;;;;18.08;2.65;;;12.60;99.90;;;;;;5111122;27;37867;-58
2022/09/19 01:14:26;;;;;;;12.25;1.92;;;12.60;99.90;;;;;;5111864;27;35313;-58
2022/09/19 01:16:57;;;;;;;14.77;2.20;;;12.60;99.90;;;;;;5110125;27;37518;-58
2022/09/19 01:19:51;;;;;;;11.77;2.10;;;12.50;99.90;;;;;;5110976;27;38231;-58
2022/09/19 01:22:29;;;;;;;10.55;3.15;;;12.50;99.90;;;;;;5109790;27;37629;-58
2022/09/19 01:25:01;;;;;;;9.63;2.20;;;12.50;99.90;;;;;;5111068;27;35438;-58
2022/09/19 01:27:53;;;;;;;11.73;1.70;;;12.60;99.90;;;;;;5109894;27;38500;-58
2022/09/19 01:30:22;;;;;;;16.42;2.20;;;12.50;99.90;;;;;;5098075;27;38993;-58
2022/09/19 01:32:54;;;;;;;16.98;2.47;;;12.50;99.90;;;;;;5109636;27;36108;-58
2022/09/19 01:35:26;;;;;;;9.02;2.00;;;12.50;99.90;;;;;;5112341;27;35387;-58
2022/09/19 01:38:03;;;;;;;12.60;2.65;;;12.50;99.90;;;;;;5110951;27;37428;-58
2022/09/19 01:40:32;;;;;;;8.15;1.50;;;12.50;99.90;;;;;;5111358;27;38709;-58
2022/09/19 01:42:59;;;;;;;20.75;2.90;;;12.50;99.90;;;;;;5110759;27;39519;-58
2022/09/19 01:45:31;;;;;;;11.15;1.63;;;12.50;99.90;;;;;;5111547;27;35387;-58
2022/09/19 01:48:08;;;;;;;11.65;2.25;;;12.50;99.90;;;;;;5109291;27;37212;-58
2022/09/19 01:50:47;;;;;;;14.55;2.03;;;12.50;99.90;;;;;;5110952;27;38050;-58
2022/09/19 01:53:23;;;;;;;14.93;2.22;;;12.50;99.90;;;;;;5108838;27;39968;-58
2022/09/19 01:55:59;;;;;;;11.75;2.28;;;12.50;99.90;;;;;;5111429;27;37454;-58
2022/09/19 01:58:40;;;;;;;10.77;1.67;;;12.50;99.90;;;;;;5115574;27;37543;-58
2022/09/19 02:01:18;;;;;;;14.20;2.72;;;12.50;99.90;;;;;;5113474;27;39159;-58
2022/09/19 02:03:51;;;;;;;11.70;2.22;;;12.50;99.90;;;;;;5113374;27;38435;-59
2022/09/19 02:06:24;;;;;;;6.80;1.52;;;12.50;99.90;;;;;;5115226;27;35254;-58
2022/09/19 02:08:59;;;;;;;12.57;1.88;;;12.50;99.90;;;;;;5114450;27;37414;-58
2022/09/19 02:11:27;;;;;;;16.45;2.00;;;12.50;99.90;;;;;;5113894;27;39549;-58
2022/09/19 02:13:58;;;;;;;18.50;3.17;;;12.50;99.90;;;;;;5114693;27;39942;-59
2022/09/19 02:16:32;;;;;;;10.75;2.08;;;12.50;99.90;;;;;;5114352;27;36633;-60
2022/09/19 02:19:03;;;;;;;8.00;1.55;;;12.50;99.90;;;;;;5113358;27;39632;-59
2022/09/19 02:21:38;;;;;;;11.23;1.58;;;12.50;99.90;;;;;;5114409;27;40990;-58
2022/09/19 02:24:10;;;;;;;11.00;1.30;;;12.50;99.90;;;;;;5115066;27;36483;-58
2022/09/19 02:26:39;;;;;;;11.32;1.60;;;12.50;99.90;;;;;;5114083;27;36449;-58
2022/09/19 02:29:12;;;;;;;11.43;1.30;;;12.50;99.90;;;;;;5114688;27;38110;-59
2022/09/19 02:31:41;;;;;;;11.20;1.38;;;12.50;99.90;;;;;;5113938;27;36899;-58
2022/09/19 02:34:09;;;;;;;9.80;1.70;;;12.50;99.90;;;;;;5114090;27;38386;-58
2022/09/19 02:36:43;;;;;;;13.23;1.75;;;12.60;99.90;;;;;;5115080;27;35276;-59
2022/09/19 02:39:20;;;;;;;10.52;1.50;;;12.60;99.90;;;;;;5115260;27;37433;-59
2022/09/19 02:41:56;;;;;;;9.10;1.10;;;12.50;99.90;;;;;;5112763;27;39060;-58
2022/09/19 02:44:30;;;;;;;10.65;1.67;;;12.50;99.90;;;;;;5113813;27;37550;-58
2022/09/19 02:47:08;;;;;;;9.38;1.40;;;12.50;99.90;;;;;;5113422;27;35369;-58
2022/09/19 02:49:40;;;;;;;10.43;1.60;;;12.50;99.90;;;;;;5114684;27;37403;-59
2022/09/19 02:52:14;;;;;;;12.02;1.63;;;12.60;99.90;;;;;;5113188;27;38106;-58
2022/09/19 02:54:45;;;;;;;11.93;1.90;;;12.60;99.90;;;;;;5114437;27;38914;-58
2022/09/19 02:57:18;;;;;;;9.02;1.35;;;12.60;99.90;;;;;;5113289;27;36860;-58
2022/09/19 02:59:48;;;;;;;10.43;1.77;;;12.60;99.90;;;;;;5114925;27;38382;-58
2022/09/19 03:02:20;;;;;;;9.98;1.30;;;12.60;99.90;;;;;;5112774;27;37081;-60
2022/09/19 03:04:53;;;;;;;10.00;1.70;;;12.60;99.90;;;;;;5114281;27;38695;-58
2022/09/19 03:07:27;;;;;;;11.88;1.63;;;12.60;99.90;;;;;;5112295;27;36562;-60
2022/09/19 03:10:01;;;;;;;11.57;2.03;;;12.60;99.90;;;;;;5113764;27;38043;-59
2022/09/19 03:12:37;;;;;;;12.98;1.98;;;12.60;99.90;;;;;;5113171;27;37123;-60
2022/09/19 03:15:07;;;;;;;12.93;1.98;;;12.60;99.90;;;;;;5113170;27;37449;-60
2022/09/19 03:17:43;;;;;;;9.95;1.42;;;12.60;99.90;;;;;;5112239;27;35264;-59
2022/09/19 03:20:13;;;;;;;8.48;1.35;;;12.60;99.90;;;;;;5113194;27;37515;-59
2022/09/19 03:22:42;;;;;;;7.68;1.60;;;12.60;99.90;;;;;;5112124;27;39532;-59
2022/09/19 03:25:11;;;;;;;9.30;1.88;;;12.50;99.90;;;;;;5114014;27;37573;-60
2022/09/19 03:27:38;;;;;;;14.30;2.20;;;12.60;99.90;;;;;;5112543;27;37423;-58
2022/09/19 03:30:07;;;;;;;10.57;1.75;;;12.60;99.90;;;;;;5113524;27;37292;-58
2022/09/19 03:32:36;;;;;;;11.90;1.65;;;12.60;99.90;;;;;;5114331;27;36949;-58
2022/09/19 03:35:05;;;;;;;11.13;2.25;;;12.60;99.90;;;;;;5112934;27;37748;-58
2022/09/19 03:37:33;;;;;;;14.50;2.85;;;12.60;99.90;;;;;;5113126;27;38233;-58
2022/09/19 03:40:01;;;;;;;15.63;2.65;;;12.60;99.90;;;;;;5113155;27;38045;-58
2022/09/19 03:42:31;;;;;;;18.42;3.03;;;12.70;99.90;;;;;;5112904;27;38242;-58
2022/09/19 03:44:59;;;;;;;15.07;2.67;;;12.60;99.90;;;;;;5112580;27;37934;-59
2022/09/19 03:47:27;;;;;;;15.75;2.58;;;12.70;99.90;;;;;;5112023;27;37303;-58
2022/09/19 03:49:57;;;;;;;12.88;2.55;;;12.70;99.90;;;;;;5113418;27;38287;-58
2022/09/19 03:52:26;;;;;;;17.20;3.05;;;12.60;99.90;;;;;;5111823;27;37137;-58
2022/09/19 03:54:53;;;;;;;10.32;2.00;;;12.70;99.90;;;;;;5113846;27;37915;-58
2022/09/19 03:57:21;;;;;;;18.77;2.95;;;12.70;99.90;;;;;;5113001;27;36635;-58
2022/09/19 03:59:49;;;;;;;11.65;2.10;;;12.70;99.90;;;;;;5111793;27;38936;-60
2022/09/19 04:02:16;;;;;;;14.30;3.17;;;12.70;99.90;;;;;;5112981;27;36885;-59
2022/09/19 04:04:43;;;;;;;15.65;3.08;;;12.70;99.90;;;;;;5112671;27;38643;-59
2022/09/19 04:07:12;;;;;;;14.52;2.50;;;12.70;99.90;;;;;;5113611;27;37260;-59
2022/09/19 04:09:39;;;;;;;17.70;2.90;;;12.70;99.90;;;;;;5112266;27;37924;-60
2022/09/19 04:12:07;;;;;;;18.27;2.38;;;12.70;99.90;;;;;;5111740;27;37874;-60
2022/09/19 04:14:35;;;;;;;13.13;2.05;;;12.70;99.90;;;;;;5111750;27;37838;-58
2022/09/19 04:17:03;;;;;;;13.77;2.95;;;12.70;99.90;;;;;;5113404;27;37103;-58
2022/09/19 04:19:30;;;;;;;17.25;2.53;;;12.70;99.90;;;;;;5111888;27;37445;-59
2022/09/19 04:22:01;;;;;;;11.57;2.17;;;12.70;99.90;;;;;;5112760;27;38728;-58
2022/09/19 04:24:30;;;;;;;13.82;2.55;;;12.70;99.90;;;;;;5112398;27;37606;-58
2022/09/19 04:27:06;;;;;;;17.83;2.95;;;12.70;99.90;;;;;;5111291;27;36636;-58
2022/09/19 04:29:33;;;;;;;13.38;2.08;;;12.70;99.90;;;;;;5112346;27;38613;-58
2022/09/19 04:32:02;;;;;;;22.88;3.38;;;12.70;99.90;;;;;;5112801;27;36967;-60
2022/09/19 04:34:30;;;;;;;11.15;1.58;;;12.70;99.90;;;;;;5111512;27;36164;-59
2022/09/19 04:36:58;;;;;;;18.90;2.72;;;12.70;99.90;;;;;;5108546;27;37639;-59
2022/09/19 04:39:26;;;;;;;14.77;3.08;;;12.60;99.90;;;;;;5111050;27;39180;-60
2022/09/19 04:41:55;;;;;;;11.30;2.47;;;12.70;99.90;;;;;;5112254;27;38372;-59
2022/09/19 04:44:25;;;;;;;14.93;2.15;;;12.70;99.90;;;;;;5111719;27;38607;-59
2022/09/19 04:46:53;;;;;;;17.27;2.78;;;12.70;99.90;;;;;;5112494;27;37972;-59
2022/09/19 04:49:20;;;;;;;15.02;2.83;;;12.70;99.90;;;;;;5112561;27;37915;-59
2022/09/19 04:51:47;;;;;;;14.30;2.72;;;12.70;99.90;;;;;;5112791;27;37940;-58
2022/09/19 04:54:16;;;;;;;19.42;2.65;;;12.70;99.90;;;;;;5111941;27;36535;-59
2022/09/19 04:56:44;;;;;;;13.45;2.17;;;12.80;99.90;;;;;;5111241;27;35516;-58
2022/09/19 04:59:12;;;;;;;17.05;2.70;;;12.70;99.90;;;;;;5112564;27;36361;-58
2022/09/19 05:01:40;;;;;;;14.55;2.10;;;12.70;99.90;;;;;;5111449;27;36936;-58
2022/09/19 05:04:08;;;;;;;18.95;2.97;;;12.70;99.90;;;;;;5112862;27;38681;-58
2022/09/19 05:06:35;;;;;;;17.02;2.42;;;12.70;99.90;;;;;;5111866;27;36492;-59
2022/09/19 05:09:03;;;;;;;13.52;2.13;;;12.70;99.90;;;;;;5112705;27;36460;-60
2022/09/19 05:11:30;;;;;;;12.00;2.25;;;12.70;99.90;;;;;;5111291;27;36750;-60
2022/09/19 05:13:58;;;;;;;14.88;2.15;;;12.70;99.90;;;;;;5110418;27;38485;-58
2022/09/19 05:16:27;;;;;;;15.30;2.22;;;12.70;99.90;;;;;;5110452;27;39053;-58
2022/09/19 05:18:55;;;;;;;13.32;2.20;;;12.70;99.90;;;;;;5110947;27;37293;-58
2022/09/19 05:21:22;;;;;;;14.85;2.10;;;12.70;99.90;;;;;;5111128;27;38233;-59
2022/09/19 05:23:49;;;;;;;16.52;2.45;;;12.70;99.90;;;;;;5109535;27;38172;-58
2022/09/19 05:26:16;;;;;;;16.65;2.70;;;12.70;99.90;;;;;;5111592;27;36532;-58
2022/09/19 05:28:45;;;;;;;12.27;2.85;;;12.70;99.90;;;;;;5111489;27;41353;-60
2022/09/19 05:31:16;;;;;;;12.25;2.55;;;12.70;99.90;;;;;;5106868;27;37920;-58
2022/09/19 05:33:45;;;;;;;12.45;2.05;;;12.70;99.90;;;;;;5109760;27;37738;-59
2022/09/19 05:36:13;;;;;;;12.27;1.95;;;12.70;99.90;;;;;;5111313;27;35330;-60
2022/09/19 05:38:41;;;;;;;10.20;1.90;;;12.60;99.90;;;;;;5111389;27;39735;-58
2022/09/19 05:41:08;;;;;;;12.90;2.17;;;12.60;99.90;;;;;;5111103;27;38545;-60
2022/09/19 05:43:36;;;;;;;14.85;2.20;;;12.60;99.90;;;;;;5112216;27;37622;-59
2022/09/19 05:46:04;;;;;;;10.73;2.00;;;12.60;99.90;;;;;;5110447;27;36417;-59
2022/09/19 05:48:31;;;;;;;11.55;2.22;;;12.70;99.90;;;;;;5110186;27;37310;-58
2022/09/19 05:51:00;;;;;;;19.33;2.25;;;12.60;99.90;;;;;;5109899;27;38037;-58
2022/09/19 05:56:12;;;;;;;20.45;3.95;;;12.60;99.90;;;;;;5111327;27;39111;-60
2022/09/19 05:58:39;;;;;;;14.38;2.30;;;12.70;99.90;;;;;;5110588;27;37369;-59
2022/09/19 06:01:09;;;;;;;16.55;3.45;;;12.60;99.90;;;;;;5110035;27;36906;-58
2022/09/19 06:03:38;;;;;;;18.63;2.58;;;12.60;99.90;;;;;;5110578;27;37759;-59
2022/09/19 06:06:11;;;;;;;14.07;2.80;;;12.70;99.90;;;;;;5112094;27;20127;-59
2022/09/19 06:08:39;;;;;;;17.02;2.30;;;12.60;99.90;;;;;;5110587;27;36436;-59
2022/09/19 06:11:08;;;;;;;19.20;3.33;;;12.60;99.90;;;;;;5110877;27;36960;-60
2022/09/19 06:16:20;;;;;;;15.18;2.58;;;12.60;99.90;;;;;;5108505;27;37010;-58
2022/09/19 06:18:49;;;;;;;16.35;2.58;;;12.70;99.90;;;;;;5109251;27;38077;-58
2022/09/19 06:21:17;;;;;;;15.27;2.25;;;12.70;99.90;;;;;;5110921;27;37093;-58
2022/09/19 06:23:45;;;;;;;14.02;2.65;;;12.70;99.90;;;;;;5111047;27;38638;-58
2022/09/19 06:26:12;;;;;;;12.57;2.30;;;12.70;99.90;;;;;;5110821;27;36433;-58
2022/09/19 06:28:39;;;;;;;10.95;2.22;;;12.70;99.90;;;;;;5110311;27;37435;-60
2022/09/19 06:31:08;;;;;;;10.70;1.75;;;12.70;99.90;;;;;;5109899;27;38098;-58
2022/09/19 06:33:35;;;;;;;16.52;2.22;;;12.70;99.90;;;;;;5110847;27;36748;-58
2022/09/19 06:36:03;;;;;;;10.82;2.35;;;12.60;99.90;;;;;;5111067;27;36512;-58
2022/09/19 06:38:32;;;;;;;13.27;1.90;;;12.60;99.90;;;;;;5110253;27;38058;-58
2022/09/19 06:41:00;;;;;;;11.82;1.83;;;12.60;99.90;;;;;;5110101;27;38401;-60
2022/09/19 06:43:30;;;;;;;9.38;1.48;;;12.60;99.90;;;;;;5112584;27;37515;-59
2022/09/19 06:45:57;;;;;;;9.02;1.88;;;12.60;99.90;;;;;;5112854;27;35495;-58
2022/09/19 06:48:24;;;;;;;12.40;1.92;;;12.60;99.90;;;;;;5114307;27;38746;-60
2022/09/19 06:50:52;;;;;;;12.82;2.22;;;12.70;99.90;;;;;;5114034;27;36858;-60
2022/09/19 06:53:20;;;;;;;13.02;1.58;;;12.60;99.90;;;;;;5114479;27;37835;-60
2022/09/19 06:55:48;;;;;;;12.35;1.58;;;12.70;99.90;;;;;;5114380;27;36532;-59
2022/09/19 06:58:16;;;;;;;9.40;1.50;;;12.70;99.90;;;;;;5112809;27;37694;-58
2022/09/19 07:00:44;;;;;;;9.73;1.60;;;12.70;99.90;;;;;;5111767;27;39057;-59
2022/09/19 07:03:14;;;;;;;10.00;1.42;;;12.70;99.90;;;;;;5113598;27;37530;-60
2022/09/19 07:05:43;;;;;;;13.27;2.00;;;12.70;99.90;;;;;;5115004;27;37170;-60
2022/09/19 07:08:11;;;;;;;11.43;1.77;;;12.70;99.90;;;;;;5114091;27;37698;-60
2022/09/19 07:10:39;;;;;;;15.27;2.80;;;12.80;99.90;;;;;;5114732;27;39296;-60
2022/09/19 07:13:10;;;;;;;16.92;2.90;;;12.80;99.90;;;;;;5113134;27;37779;-60
2022/09/19 07:15:38;;;;;;;20.45;2.60;;;12.90;99.90;;;;;;5114356;27;37037;-60
2022/09/19 07:18:08;;;;;;;15.70;2.30;;;13.00;99.90;;;;;;5113676;27;38301;-60
2022/09/19 07:20:36;;;;;;;17.27;2.35;;;13.00;99.90;;;;;;5113701;27;38848;-60
2022/09/19 07:23:05;;;;;;;15.10;2.45;;;13.10;99.90;;;;;;5113522;27;39028;-61
2022/09/19 07:25:33;;;;;;;19.88;3.33;;;13.20;99.90;;;;;;5113340;27;36849;-60
2022/09/19 07:28:02;;;;;;;16.88;2.28;;;13.30;99.90;;;;;;5112688;27;37550;-60
2022/09/19 07:30:32;;;;;;;14.18;2.72;;;13.40;99.90;;;;;;5113134;27;38271;-60
2022/09/19 07:33:01;;;;;;;10.65;2.10;;;13.40;99.90;;;;;;5113609;27;37795;-58
2022/09/19 07:35:30;;;;;;;16.27;2.75;;;13.50;99.90;;;;;;5112623;27;36664;-60
2022/09/19 07:37:57;;;;;;;19.33;2.78;;;13.50;99.90;;;;;;5113068;27;37612;-59
2022/09/19 07:40:25;;;;;;;14.80;2.20;;;13.50;99.90;;;;;;5111957;27;39156;-60
2022/09/19 07:42:52;;;;;;;14.65;2.53;;;13.50;99.90;;;;;;5113728;27;37418;-60
2022/09/19 07:45:20;;;;;;;15.30;2.50;;;13.40;99.90;;;;;;5113342;27;36365;-60
2022/09/19 07:47:48;;;;;;;10.80;2.15;;;13.40;99.90;;;;;;5113285;27;38403;-60
2022/09/19 07:50:18;;;;;;;14.43;2.35;;;13.40;99.90;;;;;;5113815;27;38727;-60
2022/09/19 07:52:46;;;;;;;18.77;2.72;;;13.40;99.90;;;;;;5113595;27;39327;-60
2022/09/19 07:55:14;;;;;;;19.77;3.05;;;13.40;99.90;;;;;;5112563;27;36652;-60
2022/09/19 07:57:51;;;;;;;15.52;2.58;;;13.30;99.90;;;;;;5113081;27;37954;-60
2022/09/19 08:00:19;;;;;;;16.02;3.53;;;13.30;99.90;;;;;;5113374;27;38873;-60
2022/09/19 08:02:55;;;;;;;15.68;1.90;;;13.30;99.90;;;;;;5112437;27;36624;-60
2022/09/19 08:05:23;;;;;;;20.02;2.88;;;13.30;99.90;;;;;;5113717;27;36703;-59
2022/09/19 08:07:51;;;;;;;12.80;2.40;;;13.30;99.90;;;;;;5113102;27;37487;-60
2022/09/19 08:10:19;;;;;;;17.33;3.05;;;13.40;99.90;;;;;;5112811;27;40035;-60
2022/09/19 08:12:47;;;;;;;16.67;2.80;;;13.40;99.90;;;;;;5112711;27;37168;-60
2022/09/19 08:15:16;;;;;;;16.33;3.45;;;13.50;99.90;;;;;;5113235;27;36744;-60
2022/09/19 08:17:44;;;;;;;17.85;2.60;;;13.60;99.90;;;;;;5112874;27;36326;-60
2022/09/19 08:20:13;;;;;;;15.75;2.70;;;13.70;99.90;;;;;;5112538;27;39939;-60
2022/09/19 08:22:41;;;;;;;16.42;2.72;;;13.80;99.90;;;;;;5113003;27;36610;-60
2022/09/19 08:25:08;;;;;;;14.15;2.30;;;13.90;99.90;;;;;;5110102;27;36456;-60
2022/09/19 08:27:37;;;;;;;15.90;2.60;;;14.00;99.90;;;;;;5112442;27;38363;-60
2022/09/19 08:30:06;;;;;;;13.75;2.10;;;14.00;99.90;;;;;;5113058;27;39486;-60
2022/09/19 08:32:34;;;;;;;16.60;2.95;;;14.10;99.90;;;;;;5112857;27;38905;-60
2022/09/19 08:35:02;;;;;;;17.25;2.58;;;14.10;99.90;;;;;;5112639;27;37555;-60
2022/09/19 08:37:31;;;;;;;15.90;2.85;;;14.10;99.90;;;;;;5113193;27;37494;-61
2022/09/19 08:40:17;;;;;;;13.40;2.67;;;14.20;99.90;;;;;;5110418;27;38076;-58
2022/09/19 08:42:59;;;;;;;20.80;2.83;;;14.30;99.90;;;;;;5111358;27;37434;-59
2022/09/19 08:45:40;;;;;;;12.32;2.03;;;14.30;99.90;;;;;;5112656;27;36508;-59
2022/09/19 08:48:14;;;;;;;13.60;3.17;;;14.40;99.90;;;;;;5112412;27;40378;-59
2022/09/19 08:50:46;;;;;;;10.68;2.33;;;14.50;99.90;;;;;;5112069;27;38765;-59
2022/09/19 08:53:29;;;;;;;13.87;2.23;;;14.50;99.90;;;;;;5111495;27;36734;-59
2022/09/19 08:56:00;;;;;;;15.63;2.38;;;14.60;99.90;;;;;;5113087;27;38581;-59
2022/09/19 08:58:29;;;;;;;15.13;2.72;;;14.70;99.90;;;;;;5112543;27;37520;-58
2022/09/19 09:00:57;;;;;;;16.35;2.45;;;14.70;99.90;;;;;;5111707;27;39235;-59
2022/09/19 09:03:34;;;;;;;13.13;2.50;;;14.80;99.90;;;;;;5110917;27;37739;-59
2022/09/19 09:06:14;;;;;;;9.63;2.10;;;14.90;99.90;;;;;;5111686;27;37343;-59
2022/09/19 09:08:54;;;;;;;17.17;3.22;;;15.00;99.90;;;;;;5112156;27;37418;-58
2022/09/19 09:11:27;;;;;;;15.45;3.10;;;15.10;99.90;;;;;;5112334;27;38792;-59
2022/09/19 09:14:04;;;;;;;11.82;1.63;;;15.00;99.90;;;;;;5112273;27;37559;-58
2022/09/19 09:16:44;;;;;;;19.92;2.85;;;15.00;99.90;;;;;;5112005;27;37203;-58
2022/09/19 09:19:32;;;;;;;12.52;1.92;;;15.00;99.90;;;;;;5111308;27;38275;-58
2022/09/19 09:22:09;;;;;;;18.55;2.88;;;15.00;99.90;;;;;;5111696;27;39624;-58
2022/09/19 09:24:40;;;;;;;16.42;2.67;;;14.90;99.90;;;;;;5111818;27;37867;-58
2022/09/19 09:27:14;;;;;;;15.35;2.45;;;14.90;99.90;;;;;;5111978;27;35594;-58
2022/09/19 09:29:45;;;;;;;8.52;2.08;;;14.90;99.90;;;;;;5112581;27;36332;-58
2022/09/19 09:32:17;;;;;;;7.07;1.33;;;14.80;99.90;;;;;;5112105;27;38239;-58
2022/09/19 09:34:50;;;;;;;14.35;2.08;;;14.80;99.90;;;;;;5111656;27;36532;-58
2022/09/19 09:37:23;;;;;;;11.63;2.10;;;14.90;99.90;;;;;;5111147;27;37460;-58
2022/09/19 09:40:00;;;;;;;8.55;1.60;;;14.90;99.90;;;;;;5111405;27;38692;-58
2022/09/19 09:42:34;;;;;;;17.38;2.13;;;14.80;99.90;;;;;;5112029;27;38674;-58
2022/09/19 09:45:03;;;;;;;;;;;14.70;99.90;;;;;;5112435;27;39221;-58
2022/09/19 09:47:45;;;;;;;18.17;3.33;;;14.70;99.90;;;;;;5110968;27;36860;-58
2022/09/19 09:50:36;;;;;;;13.02;2.13;;;14.60;99.90;;;;;;5111542;27;39269;-58
2022/09/19 09:53:12;;;;;;;15.43;2.72;;;14.60;99.90;;;;;;5112136;27;38125;-58
2022/09/19 09:58:41;;;;;;;17.50;2.15;;;14.50;99.90;;;;;;5111215;27;39889;-58
2022/09/19 10:04:17;;;;;;;8.35;1.55;;;14.20;99.90;;;;;;5111148;27;39027;-58
2022/09/19 10:06:52;;;;;;;9.88;1.92;;;14.00;99.90;;;;;;5110082;27;37682;-58
2022/09/19 10:09:23;;;;;;;13.55;2.75;;;14.00;99.90;;;;;;5109532;27;37996;-58
2022/09/19 10:11:56;;;;;;;11.48;3.13;;;13.80;99.90;;;;;;5110906;27;37418;-58
2022/09/19 10:14:28;;;;;;;15.80;3.00;;;13.80;99.90;;;;;;5109813;27;40566;-58
2022/09/19 10:16:59;;;;;;;13.38;2.80;;;13.80;99.90;;;;;;5112406;27;36639;-58
2022/09/19 10:19:29;;;;;;;13.85;2.53;;;13.80;99.90;;;;;;5113742;27;36766;-58
2022/09/19 10:21:58;;;;;;;13.23;2.65;;;13.80;99.90;;;;;;5115217;27;37488;-60
2022/09/19 10:24:42;;;;;;;17.20;3.35;;;13.80;99.90;;;;;;5115020;27;38726;-60
2022/09/19 10:27:15;;;;;;;15.98;2.15;;;13.90;99.90;;;;;;5114981;27;37706;-60
2022/09/19 10:29:49;;;;;;;;;;;14.10;99.90;;;;;;5114705;27;36626;-60
2022/09/19 10:32:18;;;;;;;;;;;14.20;99.90;;;;;;5114507;27;36609;-60
2022/09/19 10:34:45;;;;;;;13.15;2.40;;;14.30;99.90;;;;;;5113930;27;37297;-61
2022/09/19 10:37:14;;;;;;;12.93;3.35;;;14.50;99.90;;;;;;5114000;27;39020;-61
2022/09/19 10:39:44;;;;;;;9.93;2.80;;;14.70;99.90;;;;;;5114336;27;37923;-61
2022/09/19 10:42:31;;;;;;;13.32;2.30;;;14.70;99.90;;;;;;5114031;27;37383;-61
2022/09/19 10:44:59;;;;;;;15.88;2.47;;;14.60;99.90;;;;;;5114385;27;38849;-61
2022/09/19 10:47:28;;;;;;;14.00;2.20;;;14.60;99.90;;;;;;5113056;27;39093;-60
2022/09/19 10:50:02;;;;;;;9.82;2.10;;;14.80;99.90;;;;;;5114501;27;36656;-61
2022/09/19 10:52:33;;;;;;;11.93;1.73;;;14.90;99.90;;;;;;5113610;27;38055;-61
2022/09/19 10:55:09;;;;;;;15.30;2.28;;;15.00;99.90;;;;;;5113900;27;38657;-61
2022/09/19 10:57:45;;;;;;;9.10;2.05;;;15.10;99.90;;;;;;5114048;27;37664;-61
2022/09/19 11:00:24;;;;;;;15.10;2.28;;;15.10;99.90;;;;;;5114360;27;35315;-61
2022/09/19 11:02:57;;;;;;;15.13;2.63;;;15.20;99.90;;;;;;5111943;27;37636;-61
2022/09/19 11:05:27;;;;;;;13.23;2.53;;;15.10;99.90;;;;;;5114286;27;37917;-61
2022/09/19 11:07:56;;;;;;;16.05;2.47;;;15.10;99.90;;;;;;5113756;27;37941;-60
2022/09/19 11:10:33;;;;;;;15.93;3.97;;;15.00;99.90;;;;;;5113672;27;36570;-61
2022/09/19 11:13:13;;;;;;;17.92;2.40;;;15.00;99.90;;;;;;5112726;27;37441;-61
2022/09/19 11:16:06;;;;;;;14.57;2.90;;;15.10;99.90;;;;;;5113926;27;39709;-61
2022/09/19 11:19:11;;;;;;;15.80;2.33;;;15.10;99.90;;;;;;5114131;27;37948;-61
2022/09/19 11:21:52;;;;;;;17.02;2.40;;;15.10;99.90;;;;;;5114301;27;37111;-61
2022/09/19 11:24:42;;;;;;;12.65;2.33;;;15.00;99.90;;;;;;5112859;27;37518;-61
2022/09/19 11:27:30;;;;;;;13.32;2.30;;;15.00;99.90;;;;;;5113441;27;38284;-61
2022/09/19 11:30:06;;;;;;;14.88;2.40;;;15.10;99.90;;;;;;5111791;27;38495;-60
2022/09/19 11:32:53;;;;;;;12.75;1.90;;;15.30;99.90;;;;;;5112007;27;36936;-61
2022/09/19 11:35:27;;;;;;;15.55;2.25;;;15.50;99.90;;;;;;5112501;27;38034;-58
2022/09/19 11:38:19;;;;;;;13.93;1.90;;;15.60;99.90;;;;;;5112502;27;37973;-58
2022/09/19 11:41:00;;;;;;;10.20;1.80;;;15.60;99.90;;;;;;5112511;27;38712;-58
2022/09/19 11:43:44;;;;;;;14.52;2.58;;;15.60;99.90;;;;;;5112710;27;36730;-58
2022/09/19 11:46:23;;;;;;;15.60;2.08;;;15.70;99.90;;;;;;5110932;27;38137;-58
2022/09/19 11:49:27;;;;;;;11.52;2.03;;;15.80;99.90;;;;;;5112585;27;39516;-58
2022/09/19 11:52:05;;;;;;;12.93;1.67;;;15.80;99.90;;;;;;5083979;27;38055;-58
2022/09/19 11:54:49;;;;;;;14.93;2.63;;;15.80;99.90;;;;;;5112214;27;37075;-58
2022/09/19 11:57:30;;;;;;;11.98;1.88;;;15.90;99.90;;;;;;5112905;27;38911;-60
2022/09/19 12:00:05;;;;;;;17.77;3.15;;;15.80;99.90;;;;;;5112132;27;35949;-61
2022/09/19 12:02:49;;;;;;;10.50;2.38;;;15.80;99.90;;;;;;5112620;27;38221;-61
2022/09/19 12:05:27;;;;;;;14.05;2.50;;;15.90;99.90;;;;;;5113569;27;37337;-58
2022/09/19 12:08:12;;;;;;;18.20;2.70;;;15.90;99.90;;;;;;5113085;27;38919;-60
2022/09/19 12:10:45;;;;;;;17.08;2.72;;;16.00;99.70;;;;;;5110878;27;38076;-61
2022/09/19 12:13:19;;;;;;;12.07;2.05;;;15.90;99.90;;;;;;5110260;27;37783;-61
2022/09/19 12:15:51;;;;;;;8.73;1.70;;;15.90;99.80;;;;;;5110553;27;38087;-58
2022/09/19 12:18:24;;;;;;;10.40;2.00;;;15.80;99.80;;;;;;5110463;27;36498;-58
2022/09/19 12:20:56;;;;;;;11.93;1.60;;;15.90;99.90;;;;;;5110789;27;39987;-58
2022/09/19 12:26:18;;;;;;;14.13;2.22;;;15.80;99.90;;;;;;5109376;27;39005;-58
2022/09/19 12:28:52;;;;;;;13.43;2.25;;;15.70;99.90;;;;;;5111193;27;38456;-58
2022/09/19 12:31:26;;;;;;;15.30;2.45;;;15.60;99.80;;;;;;5110119;27;40570;-58
2022/09/19 12:34:11;;;;;;;11.50;1.95;;;15.50;99.60;;;;;;5110095;27;37722;-58
2022/09/19 12:36:46;;;;;;;9.93;1.88;;;15.30;99.70;;;;;;5110204;27;35249;-58
2022/09/19 12:39:17;;;;;;;12.02;2.08;;;15.40;99.90;;;;;;5110024;27;37433;-58
2022/09/19 12:41:55;;;;;;;14.18;2.28;;;15.50;99.90;;;;;;5110641;27;38142;-58
2022/09/19 12:44:29;;;;;;;9.07;1.75;;;15.50;99.50;;;;;;5112760;27;38646;-58
2022/09/19 12:46:58;;;;;;;;;;;15.50;99.40;;;;;;5112742;27;37576;-58
2022/09/19 12:49:34;;;;;;;10.75;2.58;;;15.50;99.00;;;;;;5112013;27;39318;-58
2022/09/19 12:52:09;;;;;;;10.75;1.77;;;15.40;99.10;;;;;;5112930;27;36961;-58
2022/09/19 12:54:43;;;;;;;15.05;3.13;;;15.40;99.20;;;;;;5111473;27;39150;-58
2022/09/19 12:57:16;;;;;;;14.85;2.15;;;15.30;99.60;;;;;;5112536;27;35382;-58
2022/09/19 12:59:46;;;;;;;14.70;2.03;;;15.40;99.90;;;;;;5111977;27;38313;-60
2022/09/19 13:02:24;;;;;;;13.60;2.50;;;15.40;99.90;;;;;;5111646;27;40006;-58
2022/09/19 13:05:00;;;;;;;12.45;2.10;;;15.50;99.90;;;;;;5112313;27;38404;-60
2022/09/19 13:07:33;;;;;;;18.85;2.75;;;15.60;99.90;;;;;;5112016;27;36736;-58
2022/09/19 13:10:07;;;;;;;11.30;1.90;;;15.70;99.90;;;;;;5111474;27;37650;-58
2022/09/19 13:12:43;;;;;;;17.20;3.17;;;15.70;99.90;;;;;;5111727;27;37204;-60
2022/09/19 13:15:19;;;;;;;13.77;2.17;;;15.60;99.90;;;;;;5112589;27;38564;-60
2022/09/19 13:23:32;;;;;;;12.88;2.13;;;15.40;99.90;;;;;;5111810;27;39250;-58
2022/09/19 13:26:20;;;;;;;8.68;1.75;;;15.30;99.90;;;;;;5111573;27;37950;-60